Time;durP1;ratioP1;P1;durP2;ratioP2;P2;SDS_P1;SDS_P2;PMS_P1;PMS_P2;Temp;Humidity;BMP_temperature;BMP_pressure;BME280_temperature;BME280_humidity;BME280_pressure;Samples;Min_cycle;Max_cycle;Signal;HPM_P1;HPM_P2
2022/01/09 00:01:31;;;;;;;6.03;4.78;;;4.60;99.90;;;;;;5130144;27;20053;-84
2022/01/09 00:03:57;;;;;;;5.10;4.53;;;4.60;99.90;;;;;;5094673;27;20027;-83
2022/01/09 00:06:22;;;;;;;8.38;5.13;;;4.60;99.90;;;;;;5093584;27;20454;-83
2022/01/09 00:08:48;;;;;;;4.75;4.22;;;4.60;99.90;;;;;;5111563;27;20039;-83
2022/01/09 00:11:15;;;;;;;6.68;5.20;;;4.60;99.90;;;;;;5111389;27;20042;-83
2022/01/09 00:13:41;;;;;;;5.22;4.55;;;4.60;99.90;;;;;;5111376;27;20040;-83
2022/01/09 00:16:08;;;;;;;7.35;5.45;;;4.60;99.90;;;;;;5110960;27;20130;-83
2022/01/09 00:18:34;;;;;;;6.50;4.95;;;6.10;99.90;;;;;;5093637;27;20035;-83
2022/01/09 00:21:05;;;;;;;6.90;5.28;;;4.60;99.90;;;;;;5110896;27;20539;-83
2022/01/09 00:23:33;;;;;;;8.93;5.45;;;4.50;99.90;;;;;;5129861;27;20532;-84
2022/01/09 00:25:59;;;;;;;6.88;5.88;;;5.30;99.90;;;;;;5110766;27;20153;-84
2022/01/09 00:28:25;;;;;;;10.13;6.38;;;6.40;99.90;;;;;;5110345;27;20047;-83
2022/01/09 00:30:50;;;;;;;6.00;5.20;;;5.90;99.90;;;;;;5127662;27;20388;-83
2022/01/09 00:33:20;;;;;;;6.43;5.00;;;4.60;99.90;;;;;;5110877;27;20108;-83
2022/01/09 00:35:46;;;;;;;7.78;5.78;;;4.60;99.90;;;;;;5111052;27;20046;-84
2022/01/09 00:38:12;;;;;;;7.47;5.43;;;4.50;99.90;;;;;;5111344;27;20189;-83
2022/01/09 00:40:38;;;;;;;7.05;6.13;;;4.60;99.90;;;;;;5110933;27;20122;-84
2022/01/09 00:43:08;;;;;;;7.15;5.15;;;4.50;99.90;;;;;;5110718;27;20069;-84
2022/01/09 00:45:34;;;;;;;6.70;4.78;;;4.50;99.90;;;;;;5110032;27;20434;-84
2022/01/09 00:48:00;;;;;;;7.93;4.88;;;4.50;99.90;;;;;;5109990;27;20047;-84
2022/01/09 00:50:26;;;;;;;7.63;5.43;;;6.40;99.90;;;;;;5110201;27;20072;-84
2022/01/09 00:52:51;;;;;;;8.40;5.95;;;4.60;99.90;;;;;;5110750;27;20112;-84
2022/01/09 00:55:18;;;;;;;5.95;5.20;;;4.50;99.90;;;;;;5128675;27;20134;-84
2022/01/09 00:57:44;;;;;;;8.02;5.70;;;4.50;99.90;;;;;;5128705;27;20072;-83
2022/01/09 01:00:11;;;;;;;6.47;5.25;;;4.50;99.90;;;;;;5128906;27;20088;-84
2022/01/09 01:02:37;;;;;;;6.72;5.78;;;4.50;99.90;;;;;;5109919;27;20031;-83
2022/01/09 01:05:06;;;;;;;7.10;5.38;;;4.50;99.90;;;;;;5110202;27;20044;-84
2022/01/09 01:07:32;;;;;;;6.15;5.40;;;4.50;99.90;;;;;;5110046;27;20467;-84
2022/01/09 01:09:58;;;;;;;8.20;5.47;;;4.50;99.90;;;;;;5109872;27;20130;-84
2022/01/09 01:12:28;;;;;;;6.88;5.18;;;4.50;99.90;;;;;;5110042;27;20569;-84
2022/01/09 01:14:55;;;;;;;9.00;5.03;;;4.50;99.90;;;;;;5093066;27;20035;-84
2022/01/09 01:17:21;;;;;;;6.93;6.05;;;4.50;99.90;;;;;;5109868;27;20057;-84
2022/01/09 01:19:47;;;;;;;7.38;5.90;;;4.50;99.90;;;;;;5109813;27;20039;-84
2022/01/09 01:22:14;;;;;;;7.80;5.38;;;4.50;99.90;;;;;;5075950;27;20572;-84
2022/01/09 01:24:41;;;;;;;7.60;5.72;;;4.50;99.90;;;;;;5109813;27;20045;-84
2022/01/09 01:27:06;;;;;;;5.90;5.28;;;4.50;99.90;;;;;;5109844;27;20131;-84
2022/01/09 01:29:33;;;;;;;8.35;5.63;;;4.60;99.90;;;;;;5072620;28;20125;-83
2022/01/09 01:31:58;;;;;;;8.02;5.78;;;4.70;99.90;;;;;;5106885;28;20124;-83
2022/01/09 01:34:24;;;;;;;8.23;6.20;;;4.60;99.90;;;;;;5072481;28;20052;-83
2022/01/09 01:36:50;;;;;;;6.75;5.85;;;5.10;99.90;;;;;;5072383;28;20044;-84
2022/01/09 01:39:15;;;;;;;7.72;5.63;;;4.60;99.90;;;;;;5089077;28;20098;-83
2022/01/09 01:41:41;;;;;;;6.50;5.30;;;4.60;99.90;;;;;;5089431;28;20047;-84
2022/01/09 01:44:10;;;;;;;7.40;6.18;;;4.50;99.90;;;;;;5106113;28;20047;-83
2022/01/09 01:46:36;;;;;;;5.82;5.22;;;4.60;99.90;;;;;;5106090;28;20036;-83
2022/01/09 01:49:03;;;;;;;7.78;5.72;;;5.50;99.90;;;;;;5089251;28;20040;-83
2022/01/09 01:51:28;;;;;;;6.32;5.10;;;4.60;99.90;;;;;;5106131;28;20477;-83
2022/01/09 01:53:56;;;;;;;6.28;5.18;;;4.60;99.90;;;;;;5105934;28;20130;-83
2022/01/09 01:56:23;;;;;;;6.57;5.72;;;4.60;99.90;;;;;;5090533;28;20600;-84
2022/01/09 01:58:49;;;;;;;7.43;6.13;;;4.60;99.90;;;;;;5076898;28;20055;-83
2022/01/09 02:01:16;;;;;;;8.25;5.68;;;4.60;99.90;;;;;;5111554;28;20050;-84
2022/01/09 02:03:42;;;;;;;7.78;6.20;;;4.60;99.90;;;;;;5110415;28;20053;-83
2022/01/09 02:06:07;;;;;;;9.32;5.45;;;4.60;99.90;;;;;;5110354;28;20036;-84
2022/01/09 02:08:33;;;;;;;7.57;5.80;;;4.60;99.90;;;;;;5110213;28;20375;-84
2022/01/09 02:10:59;;;;;;;6.47;5.68;;;4.60;99.90;;;;;;5109895;28;20036;-84
2022/01/09 02:13:25;;;;;;;7.97;6.70;;;4.60;99.90;;;;;;5093220;28;20043;-83
2022/01/09 02:15:56;;;;;;;7.85;5.97;;;4.60;99.90;;;;;;5109746;28;20124;-83
2022/01/09 02:18:22;;;;;;;8.27;6.35;;;4.60;99.90;;;;;;5093310;28;20101;-83
2022/01/09 02:20:50;;;;;;;7.50;6.10;;;4.60;99.90;;;;;;5110291;28;20134;-83
2022/01/09 02:23:17;;;;;;;9.07;6.90;;;4.60;99.90;;;;;;5092806;28;20426;-83
2022/01/09 02:25:44;;;;;;;7.85;6.43;;;4.60;99.90;;;;;;5059842;28;20130;-83
2022/01/09 02:28:12;;;;;;;9.30;7.15;;;4.60;99.90;;;;;;5075669;28;20047;-83
2022/01/09 02:30:39;;;;;;;10.40;6.85;;;5.10;99.90;;;;;;5075485;28;20043;-83
2022/01/09 02:33:08;;;;;;;11.43;7.40;;;4.70;99.90;;;;;;5109504;28;20044;-84
2022/01/09 02:35:34;;;;;;;8.23;6.15;;;4.70;99.90;;;;;;5109676;28;20109;-84
2022/01/09 02:38:00;;;;;;;8.88;6.80;;;4.70;99.90;;;;;;5109687;28;20114;-84
2022/01/09 02:40:26;;;;;;;9.80;6.82;;;4.70;99.90;;;;;;5111104;28;20048;-84
2022/01/09 02:42:53;;;;;;;9.27;6.90;;;4.70;99.90;;;;;;5109593;28;20504;-85
2022/01/09 02:45:21;;;;;;;11.80;7.22;;;4.70;99.90;;;;;;5092223;28;20043;-85
2022/01/09 02:47:49;;;;;;;11.15;6.65;;;4.70;99.90;;;;;;5092239;28;20043;-85
2022/01/09 02:50:38;;;;;;;7.95;5.60;;;4.70;99.90;;;;;;5092301;28;20444;-85
2022/01/09 02:53:14;;;;;;;6.93;5.53;;;4.70;99.90;;;;;;5095612;28;20089;-85
2022/01/09 02:55:41;;;;;;;8.95;4.05;;;4.80;99.90;;;;;;5109356;28;20044;-86
2022/01/09 02:58:06;;;;;;;7.85;4.35;;;5.10;99.90;;;;;;5109004;28;20043;-86
2022/01/09 03:00:38;;;;;;;6.68;4.00;;;6.20;99.90;;;;;;5108805;28;20055;-85
2022/01/09 03:03:05;;;;;;;8.00;3.72;;;5.00;99.90;;;;;;5109114;28;20077;-85
2022/01/09 03:05:31;;;;;;;7.75;3.78;;;5.00;99.90;;;;;;5092186;28;20123;-84
2022/01/09 03:07:58;;;;;;;7.25;3.60;;;6.60;99.90;;;;;;5107694;28;20044;-83
2022/01/09 03:10:24;;;;;;;8.23;2.78;;;5.10;99.90;;;;;;5109208;28;20059;-83
2022/01/09 03:12:52;;;;;;;7.80;2.95;;;5.10;99.90;;;;;;5109413;28;20081;-83
2022/01/09 03:15:18;;;;;;;10.02;3.33;;;5.10;99.90;;;;;;5108590;28;20028;-84
2022/01/09 03:17:44;;;;;;;15.40;2.88;;;5.20;99.90;;;;;;5110074;27;20043;-85
2022/01/09 03:20:19;;;;;;;11.98;2.17;;;5.30;99.90;;;;;;5091534;28;20142;-84
2022/01/09 03:22:45;;;;;;;9.00;1.98;;;5.30;99.90;;;;;;5092199;28;20035;-85
2022/01/09 03:25:11;;;;;;;12.90;1.80;;;5.90;99.90;;;;;;5108737;28;20039;-87
2022/01/09 03:27:38;;;;;;;6.97;1.55;;;5.40;99.90;;;;;;5091501;28;20043;-87
2022/01/09 03:30:07;;;;;;;17.95;2.28;;;5.40;99.90;;;;;;5091132;28;20052;-85
2022/01/09 03:32:34;;;;;;;17.50;2.45;;;5.50;99.90;;;;;;5108787;28;20046;-86
2022/01/09 03:35:00;;;;;;;15.73;2.20;;;5.90;99.90;;;;;;5091297;28;20032;-87
2022/01/09 03:37:25;;;;;;;16.17;1.92;;;5.40;99.90;;;;;;5108562;28;20122;-88
2022/01/09 03:39:52;;;;;;;22.70;2.65;;;5.50;99.90;;;;;;5108708;28;20048;-88
2022/01/09 03:42:18;;;;;;;18.27;2.08;;;5.50;99.90;;;;;;5110207;28;20073;-88
2022/01/09 03:44:44;;;;;;;13.98;1.88;;;5.50;99.90;;;;;;5108124;28;20040;-88
2022/01/09 03:47:10;;;;;;;14.80;2.28;;;5.50;99.90;;;;;;5108152;28;20043;-88
2022/01/09 03:49:36;;;;;;;15.45;1.77;;;5.70;99.90;;;;;;5109545;28;20078;-88
2022/01/09 03:52:02;;;;;;;13.00;1.38;;;5.50;99.90;;;;;;5108077;28;20517;-88
2022/01/09 03:54:28;;;;;;;12.40;1.58;;;5.50;99.90;;;;;;5109696;28;20070;-88
2022/01/09 03:56:54;;;;;;;11.82;1.65;;;5.60;99.90;;;;;;5109807;28;20379;-87
2022/01/09 03:59:20;;;;;;;11.52;1.42;;;5.60;99.90;;;;;;5108381;28;20052;-87
2022/01/09 04:01:46;;;;;;;14.85;2.00;;;5.60;99.90;;;;;;5107949;28;20035;-86
2022/01/09 04:04:12;;;;;;;13.27;1.40;;;5.60;99.90;;;;;;5108466;28;20391;-86
2022/01/09 04:06:44;;;;;;;24.48;1.90;;;5.60;99.90;;;;;;5109120;28;20040;-85
2022/01/09 04:09:18;;;;;;;13.48;1.60;;;6.40;99.90;;;;;;5107696;28;20104;-84
2022/01/09 04:11:44;;;;;;;14.20;1.45;;;4.60;99.90;;;;;;5109566;28;20046;-84
2022/01/09 04:14:10;;;;;;;14.88;2.55;;;5.60;99.90;;;;;;5075798;28;20044;-84
2022/01/09 04:16:36;;;;;;;14.23;2.63;;;5.60;99.90;;;;;;5057791;28;20054;-83
2022/01/09 04:19:02;;;;;;;21.23;2.65;;;5.70;99.90;;;;;;5090251;28;20082;-84
2022/01/09 04:21:27;;;;;;;22.40;3.45;;;5.70;99.90;;;;;;5090370;28;20040;-83
2022/01/09 04:23:53;;;;;;;44.53;4.38;;;5.70;99.90;;;;;;5107618;28;20133;-83
2022/01/09 04:26:21;;;;;;;28.63;3.05;;;5.80;99.90;;;;;;5090504;28;20039;-83
2022/01/09 04:28:47;;;;;;;20.10;2.58;;;5.80;99.90;;;;;;5108351;27;20058;-83
2022/01/09 04:31:13;;;;;;;23.33;3.35;;;5.90;99.90;;;;;;5111251;27;20405;-83
2022/01/09 04:33:40;;;;;;;35.38;3.30;;;6.20;99.90;;;;;;5110854;27;20122;-83
2022/01/09 04:36:05;;;;;;;33.25;4.28;;;6.00;99.90;;;;;;5094154;27;20039;-83
2022/01/09 04:38:31;;;;;;;29.45;3.90;;;6.00;99.90;;;;;;5110932;27;20722;-83
2022/01/09 04:40:57;;;;;;;40.85;3.50;;;6.00;99.90;;;;;;5110202;27;20086;-83
2022/01/09 04:43:22;;;;;;;24.45;2.95;;;6.00;99.90;;;;;;5110704;27;20063;-84
2022/01/09 04:45:49;;;;;;;20.38;2.85;;;6.80;99.90;;;;;;5110666;27;20082;-83
2022/01/09 04:48:15;;;;;;;28.52;3.53;;;6.00;99.90;;;;;;5129010;27;20512;-83
2022/01/09 04:50:43;;;;;;;21.33;3.05;;;7.50;99.90;;;;;;5110702;27;20062;-83
2022/01/09 04:53:09;;;;;;;43.13;4.40;;;6.10;99.90;;;;;;5128734;27;20055;-83
2022/01/09 04:55:45;;;;;;;36.55;3.35;;;6.10;99.90;;;;;;5128946;27;20051;-83
2022/01/09 04:58:11;;;;;;;30.00;3.85;;;6.10;99.90;;;;;;5128474;27;20054;-84
2022/01/09 05:00:39;;;;;;;27.60;3.30;;;6.10;99.90;;;;;;5110172;27;20047;-83
2022/01/09 05:03:06;;;;;;;24.33;3.67;;;6.10;99.90;;;;;;5110055;27;20043;-83
2022/01/09 05:05:33;;;;;;;28.63;2.88;;;6.10;99.90;;;;;;5128832;27;20058;-84
2022/01/09 05:07:59;;;;;;;26.35;2.40;;;6.40;99.90;;;;;;5128946;27;20118;-83
2022/01/09 05:10:25;;;;;;;26.67;4.30;;;7.40;99.90;;;;;;5128755;27;20034;-84
2022/01/09 05:12:51;;;;;;;28.05;3.38;;;6.20;99.90;;;;;;5128680;27;20039;-83
2022/01/09 05:15:19;;;;;;;12.57;2.35;;;6.20;99.90;;;;;;5109734;27;20043;-83
2022/01/09 05:17:45;;;;;;;28.70;2.60;;;6.20;99.90;;;;;;5128334;27;20118;-83
2022/01/09 05:20:11;;;;;;;25.20;3.00;;;7.50;99.90;;;;;;5128253;27;20131;-83
2022/01/09 05:22:37;;;;;;;21.90;2.72;;;6.20;99.90;;;;;;5128454;27;20047;-83
2022/01/09 05:25:06;;;;;;;35.25;2.58;;;7.20;99.90;;;;;;5128566;27;20119;-83
2022/01/09 05:27:33;;;;;;;23.40;2.25;;;6.20;99.90;;;;;;5128341;27;20047;-83
2022/01/09 05:29:59;;;;;;;20.85;3.25;;;6.20;99.90;;;;;;5127944;27;20062;-83
2022/01/09 05:32:25;;;;;;;23.25;3.05;;;6.20;99.90;;;;;;5127602;27;20088;-83
2022/01/09 05:34:51;;;;;;;27.70;2.50;;;6.20;99.90;;;;;;5110037;27;20039;-83
2022/01/09 05:37:17;;;;;;;19.98;2.78;;;6.20;99.90;;;;;;5128556;27;20520;-83
2022/01/09 05:39:43;;;;;;;27.80;2.28;;;6.20;99.90;;;;;;5128478;27;20471;-83
2022/01/09 05:42:11;;;;;;;26.77;2.78;;;6.20;99.90;;;;;;5128368;27;20043;-83
2022/01/09 05:44:37;;;;;;;22.23;2.45;;;6.10;99.90;;;;;;5127795;27;20054;-83
2022/01/09 05:47:03;;;;;;;17.58;2.33;;;6.10;99.90;;;;;;5109700;28;20027;-83
2022/01/09 05:49:30;;;;;;;26.10;2.90;;;6.10;99.90;;;;;;5128061;28;20043;-83
2022/01/09 05:51:56;;;;;;;21.35;2.95;;;6.10;99.90;;;;;;5128347;28;20403;-83
2022/01/09 05:54:22;;;;;;;19.73;2.55;;;6.10;99.90;;;;;;5109564;28;20039;-83
2022/01/09 05:56:47;;;;;;;17.05;2.30;;;6.90;99.90;;;;;;5128264;28;20039;-83
2022/01/09 05:59:13;;;;;;;24.15;2.90;;;6.20;99.90;;;;;;5109274;28;20042;-83
2022/01/09 06:01:39;;;;;;;14.82;2.28;;;6.00;99.90;;;;;;5128048;28;20047;-83
2022/01/09 06:04:05;;;;;;;17.65;2.15;;;6.00;99.90;;;;;;5128079;28;20114;-83
2022/01/09 06:06:32;;;;;;;26.38;2.38;;;6.00;99.90;;;;;;5109384;28;20046;-83
2022/01/09 06:08:58;;;;;;;19.75;2.60;;;6.20;99.90;;;;;;5128009;28;20079;-83
2022/01/09 06:11:24;;;;;;;23.10;2.10;;;6.00;99.90;;;;;;5127911;28;20119;-83
2022/01/09 06:13:49;;;;;;;27.08;3.13;;;6.00;99.90;;;;;;5109664;28;20039;-83
2022/01/09 06:16:15;;;;;;;21.27;1.75;;;6.00;99.90;;;;;;5092573;28;20107;-83
2022/01/09 06:18:41;;;;;;;11.48;2.55;;;6.00;99.90;;;;;;5109181;28;20043;-83
2022/01/09 06:21:07;;;;;;;22.42;2.10;;;5.90;99.90;;;;;;5127798;28;20065;-83
2022/01/09 06:23:32;;;;;;;15.55;1.65;;;5.90;99.90;;;;;;5127643;28;20051;-83
2022/01/09 06:25:58;;;;;;;21.85;2.25;;;5.90;99.90;;;;;;5127777;28;20461;-83
2022/01/09 06:28:24;;;;;;;18.00;2.05;;;6.20;99.90;;;;;;5108948;28;20043;-83
2022/01/09 06:30:50;;;;;;;11.93;2.15;;;5.90;99.90;;;;;;5109222;28;20112;-83
2022/01/09 06:33:16;;;;;;;11.55;1.70;;;7.40;99.90;;;;;;5127745;28;20048;-83
2022/01/09 06:35:42;;;;;;;19.83;2.80;;;5.90;99.90;;;;;;5109111;28;20044;-83
2022/01/09 06:38:08;;;;;;;18.70;1.67;;;5.80;99.90;;;;;;5109182;28;20074;-83
2022/01/09 06:40:34;;;;;;;16.40;3.22;;;5.80;99.90;;;;;;5127563;28;20059;-83
2022/01/09 06:43:00;;;;;;;14.80;1.35;;;5.80;99.90;;;;;;5129775;27;20044;-83
2022/01/09 06:45:27;;;;;;;15.98;1.80;;;6.30;99.90;;;;;;5131007;27;20043;-83
2022/01/09 06:47:54;;;;;;;18.13;1.70;;;5.80;99.90;;;;;;5112687;27;20043;-83
2022/01/09 06:50:21;;;;;;;16.02;1.67;;;5.90;99.90;;;;;;5095739;27;20051;-83
2022/01/09 06:52:47;;;;;;;17.70;2.70;;;5.80;99.90;;;;;;5131046;27;20514;-83
2022/01/09 06:55:13;;;;;;;24.98;2.90;;;5.80;99.90;;;;;;5131440;27;20039;-82
2022/01/09 06:57:39;;;;;;;9.40;1.33;;;5.80;99.90;;;;;;5131210;27;20050;-82
2022/01/09 07:00:06;;;;;;;15.95;1.60;;;5.80;99.90;;;;;;5112293;27;20064;-83
2022/01/09 07:02:32;;;;;;;15.75;2.20;;;5.80;99.90;;;;;;5112263;27;20039;-83
2022/01/09 07:04:58;;;;;;;19.83;2.92;;;5.80;99.90;;;;;;5130936;27;20073;-81
2022/01/09 07:07:23;;;;;;;19.63;2.05;;;5.80;99.90;;;;;;5130800;27;20046;-83
2022/01/09 07:09:49;;;;;;;16.20;1.58;;;6.30;99.90;;;;;;5130795;27;20112;-82
2022/01/09 07:12:15;;;;;;;10.25;1.38;;;5.80;99.90;;;;;;5112316;27;20039;-82
2022/01/09 07:14:41;;;;;;;21.40;2.50;;;6.30;99.90;;;;;;5112148;27;20122;-83
2022/01/09 07:17:07;;;;;;;13.48;1.58;;;5.80;99.90;;;;;;5094991;27;20066;-82
2022/01/09 07:19:33;;;;;;;5.75;1.27;;;5.70;99.90;;;;;;5112388;27;20072;-81
2022/01/09 07:21:58;;;;;;;13.38;1.27;;;7.00;99.90;;;;;;5112204;27;20046;-82
2022/01/09 07:24:24;;;;;;;14.70;1.60;;;5.70;99.90;;;;;;5112464;27;20062;-83
2022/01/09 07:26:50;;;;;;;14.05;1.33;;;5.70;99.90;;;;;;5078922;27;20070;-83
2022/01/09 07:29:16;;;;;;;18.17;1.73;;;5.70;99.90;;;;;;5111716;27;20051;-82
2022/01/09 07:31:42;;;;;;;16.33;1.80;;;5.70;99.90;;;;;;5095306;27;20054;-82
2022/01/09 07:34:07;;;;;;;11.93;1.55;;;5.60;99.90;;;;;;5112219;27;20051;-82
2022/01/09 07:36:33;;;;;;;14.95;2.60;;;6.70;99.90;;;;;;5077532;27;20039;-83
2022/01/09 07:38:59;;;;;;;20.30;1.95;;;5.60;99.90;;;;;;5061723;27;20176;-83
2022/01/09 07:41:25;;;;;;;15.82;1.88;;;5.60;99.90;;;;;;5094651;27;20502;-82
2022/01/09 07:43:50;;;;;;;24.88;3.10;;;5.60;99.90;;;;;;5094880;27;20043;-81
2022/01/09 07:46:16;;;;;;;8.70;1.48;;;5.60;99.90;;;;;;5078210;27;20043;-82
2022/01/09 07:48:42;;;;;;;20.52;2.13;;;5.60;99.90;;;;;;5077997;27;20043;-82
2022/01/09 07:51:08;;;;;;;19.05;2.10;;;5.70;99.90;;;;;;5111718;27;20035;-81
2022/01/09 07:53:33;;;;;;;18.60;2.13;;;5.50;99.90;;;;;;5110675;27;20050;-82
2022/01/09 07:55:59;;;;;;;16.65;1.55;;;5.50;99.90;;;;;;5094230;27;20043;-82
2022/01/09 07:58:25;;;;;;;16.85;1.83;;;5.70;99.90;;;;;;5110835;27;20146;-80
2022/01/09 08:00:50;;;;;;;27.10;1.92;;;5.60;99.90;;;;;;5094634;27;20118;-81
2022/01/09 08:03:16;;;;;;;9.05;1.75;;;5.50;99.90;;;;;;5111293;27;20403;-82
2022/01/09 08:05:42;;;;;;;17.83;1.95;;;5.40;99.90;;;;;;5093962;27;20482;-81
2022/01/09 08:08:08;;;;;;;12.93;1.50;;;5.40;99.90;;;;;;5094132;27;20043;-81
2022/01/09 08:10:34;;;;;;;24.08;2.33;;;6.50;99.90;;;;;;5110805;27;20050;-81
2022/01/09 08:13:00;;;;;;;9.75;1.50;;;5.40;99.90;;;;;;5093975;27;20042;-81
2022/01/09 08:15:30;;;;;;;18.65;1.77;;;5.40;99.90;;;;;;5093731;27;20043;-82
2022/01/09 08:17:56;;;;;;;12.38;1.55;;;6.40;99.90;;;;;;5094174;27;20538;-81
2022/01/09 08:20:22;;;;;;;10.68;1.33;;;5.50;99.90;;;;;;5077315;27;20039;-80
2022/01/09 08:22:48;;;;;;;15.10;1.83;;;5.30;99.90;;;;;;5076883;27;20047;-81
2022/01/09 08:25:17;;;;;;;16.75;2.13;;;6.80;99.90;;;;;;5111063;27;20041;-80
2022/01/09 08:27:44;;;;;;;21.85;1.70;;;5.30;99.90;;;;;;5110081;27;20045;-82
2022/01/09 08:30:11;;;;;;;17.38;1.58;;;5.30;99.90;;;;;;5072219;28;20131;-84
2022/01/09 08:32:37;;;;;;;27.10;1.70;;;6.40;99.90;;;;;;5071360;28;20121;-82
2022/01/09 08:35:04;;;;;;;10.93;1.10;;;5.20;99.90;;;;;;5072647;28;20043;-81
2022/01/09 08:37:30;;;;;;;11.35;1.58;;;5.30;99.90;;;;;;5091063;28;20075;-82
2022/01/09 08:39:56;;;;;;;11.70;1.90;;;5.30;99.90;;;;;;5090534;28;20148;-82
2022/01/09 08:42:22;;;;;;;12.48;1.55;;;5.30;99.90;;;;;;5107383;28;20036;-82
2022/01/09 08:44:48;;;;;;;16.83;1.38;;;5.40;99.90;;;;;;5108126;28;20411;-83
2022/01/09 08:47:13;;;;;;;4.22;1.20;;;5.30;99.90;;;;;;5089830;28;20047;-83
2022/01/09 08:49:39;;;;;;;20.02;1.55;;;4.80;99.90;;;;;;5072966;28;20040;-82
2022/01/09 08:52:05;;;;;;;13.65;1.20;;;5.30;99.90;;;;;;5106792;28;20043;-83
2022/01/09 08:54:32;;;;;;;19.85;2.03;;;5.30;99.90;;;;;;5107140;28;20303;-82
2022/01/09 08:56:58;;;;;;;22.48;2.10;;;6.50;99.90;;;;;;5090178;28;20479;-82
2022/01/09 08:59:24;;;;;;;9.40;1.42;;;5.30;99.90;;;;;;5108761;28;20130;-83
2022/01/09 09:01:50;;;;;;;14.38;1.02;;;5.30;99.90;;;;;;5089535;28;20047;-83
2022/01/09 09:04:16;;;;;;;11.23;1.20;;;5.30;99.90;;;;;;5108190;28;20123;-85
2022/01/09 09:06:42;;;;;;;11.23;1.50;;;5.30;99.90;;;;;;5107245;28;20051;-82
2022/01/09 09:09:09;;;;;;;11.40;1.17;;;5.40;99.90;;;;;;5108129;28;20043;-83
2022/01/09 09:11:36;;;;;;;12.07;1.55;;;5.40;99.90;;;;;;5107103;28;20047;-83
2022/01/09 09:14:02;;;;;;;9.63;1.20;;;5.40;99.90;;;;;;5106640;28;20654;-84
2022/01/09 09:16:29;;;;;;;12.52;1.40;;;5.40;99.90;;;;;;5106802;28;20039;-84
2022/01/09 09:18:55;;;;;;;11.98;1.08;;;5.40;99.90;;;;;;5107753;28;20096;-84
2022/01/09 09:21:21;;;;;;;21.45;1.73;;;5.50;99.90;;;;;;5108021;28;20035;-84
2022/01/09 09:23:46;;;;;;;6.95;1.10;;;6.80;99.90;;;;;;5106480;28;20043;-84
2022/01/09 09:26:14;;;;;;;19.63;1.52;;;5.50;99.90;;;;;;5106760;28;20040;-83
2022/01/09 09:28:40;;;;;;;9.93;1.73;;;5.50;99.90;;;;;;5106822;28;20044;-84
2022/01/09 09:31:05;;;;;;;6.88;1.23;;;5.50;99.90;;;;;;5123897;27;20536;-84
2022/01/09 09:33:31;;;;;;;10.73;1.55;;;6.70;99.90;;;;;;5076580;27;20537;-83
2022/01/09 09:36:02;;;;;;;15.35;1.48;;;5.60;99.90;;;;;;5109558;27;20591;-84
2022/01/09 09:38:29;;;;;;;11.00;1.13;;;5.60;99.90;;;;;;5093893;27;20399;-84
2022/01/09 09:40:55;;;;;;;9.43;1.50;;;5.70;99.90;;;;;;5109521;28;20038;-85
2022/01/09 09:43:21;;;;;;;14.63;1.33;;;5.70;99.90;;;;;;5127938;27;20537;-84
2022/01/09 09:45:47;;;;;;;9.82;1.23;;;5.70;99.90;;;;;;5128524;27;20106;-83
2022/01/09 09:48:13;;;;;;;5.10;1.25;;;5.60;99.90;;;;;;5109701;28;20509;-83
2022/01/09 09:50:39;;;;;;;9.70;1.23;;;5.70;99.90;;;;;;5128219;28;20039;-84
2022/01/09 09:53:04;;;;;;;7.68;1.38;;;5.70;99.90;;;;;;5109600;28;20127;-84
2022/01/09 09:55:30;;;;;;;6.90;0.95;;;5.70;99.90;;;;;;5075474;28;20043;-83
2022/01/09 09:57:57;;;;;;;7.05;1.10;;;5.70;99.90;;;;;;5127556;28;20043;-83
2022/01/09 10:00:24;;;;;;;9.27;1.02;;;5.70;99.90;;;;;;5109747;28;20463;-84
2022/01/09 10:02:53;;;;;;;5.00;0.80;;;5.70;99.90;;;;;;5076123;28;20122;-83
2022/01/09 10:05:21;;;;;;;15.10;1.90;;;5.70;99.90;;;;;;5109844;28;20378;-86
2022/01/09 10:07:47;;;;;;;14.73;1.38;;;5.70;99.90;;;;;;5092761;28;20489;-85
2022/01/09 10:10:15;;;;;;;9.45;1.33;;;5.70;99.90;;;;;;5093021;28;20047;-85
2022/01/09 10:12:43;;;;;;;9.48;1.30;;;5.80;99.90;;;;;;5109707;28;20383;-83
2022/01/09 10:15:12;;;;;;;15.32;1.60;;;5.80;99.90;;;;;;5109560;28;20099;-83
2022/01/09 10:17:49;;;;;;;11.68;1.23;;;5.90;99.90;;;;;;5129411;27;20424;-84
2022/01/09 10:20:24;;;;;;;11.65;1.10;;;6.30;99.90;;;;;;5097067;27;20063;-84
2022/01/09 10:22:53;;;;;;;12.95;1.13;;;5.90;99.90;;;;;;5112788;27;20055;-85
2022/01/09 10:25:37;;;;;;;17.77;1.35;;;5.90;99.90;;;;;;5095793;27;20499;-84
2022/01/09 10:28:11;;;;;;;10.82;1.08;;;5.90;99.90;;;;;;5130828;27;20546;-86
2022/01/09 10:30:39;;;;;;;11.38;1.23;;;6.00;99.90;;;;;;5094872;27;20062;-82
2022/01/09 10:33:08;;;;;;;10.25;0.98;;;6.00;99.90;;;;;;5113247;27;20069;-83
2022/01/09 10:35:56;;;;;;;10.90;1.10;;;7.20;99.90;;;;;;5092305;27;20398;-85
2022/01/09 10:38:27;;;;;;;16.15;0.98;;;6.10;99.90;;;;;;5094577;27;20043;-83
2022/01/09 10:40:57;;;;;;;7.57;0.90;;;6.10;99.90;;;;;;5112117;27;20054;-83
2022/01/09 10:43:34;;;;;;;14.93;1.77;;;6.10;99.90;;;;;;5111920;27;20080;-82
2022/01/09 10:46:01;;;;;;;12.00;1.50;;;6.10;99.90;;;;;;5130647;27;20498;-81
2022/01/09 10:48:37;;;;;;;10.88;1.10;;;6.10;99.90;;;;;;5113148;27;20433;-81
2022/01/09 10:51:05;;;;;;;12.85;1.40;;;6.10;99.90;;;;;;5131101;27;20043;-80
2022/01/09 10:53:34;;;;;;;6.75;0.90;;;6.10;99.90;;;;;;5131398;27;20047;-82
2022/01/09 10:56:20;;;;;;;12.43;1.23;;;6.10;99.90;;;;;;5095427;27;20126;-82
2022/01/09 10:58:57;;;;;;;4.85;0.95;;;6.10;99.90;;;;;;5093756;27;20100;-81
2022/01/09 11:01:31;;;;;;;14.07;1.45;;;6.20;99.90;;;;;;5112534;27;20039;-81
2022/01/09 11:04:06;;;;;;;7.93;1.00;;;6.10;99.90;;;;;;5112476;27;20039;-81
2022/01/09 11:06:34;;;;;;;12.13;1.10;;;6.10;99.90;;;;;;5130857;27;20428;-82
2022/01/09 11:09:02;;;;;;;18.08;1.75;;;6.10;99.90;;;;;;5111404;27;20524;-82
2022/01/09 11:11:34;;;;;;;11.25;0.93;;;6.60;99.90;;;;;;5094640;27;20072;-81
2022/01/09 11:14:03;;;;;;;12.88;1.10;;;7.20;99.90;;;;;;5112313;27;20082;-82
2022/01/09 11:16:32;;;;;;;7.65;1.48;;;6.00;99.90;;;;;;5094454;27;20449;-82
2022/01/09 11:19:03;;;;;;;9.82;1.42;;;6.00;99.90;;;;;;5078641;27;20047;-82
2022/01/09 11:21:31;;;;;;;12.18;0.85;;;6.00;99.90;;;;;;5129298;27;20303;-83
2022/01/09 11:24:18;;;;;;;16.83;1.20;;;6.10;99.90;;;;;;5094023;27;20032;-84
2022/01/09 11:27:15;;;;;;;7.57;1.25;;;6.20;99.90;;;;;;5094368;27;20050;-83
2022/01/09 11:29:54;;;;;;;11.57;1.10;;;6.20;99.90;;;;;;5109676;27;20088;-82
2022/01/09 11:40:37;;;;;;;11.48;1.67;;;6.80;99.90;;;;;;5026735;28;20140;-82
2022/01/09 11:43:05;;;;;;;12.38;1.38;;;8.10;99.90;;;;;;5029762;28;20131;-83
2022/01/09 11:45:42;;;;;;;6.40;1.45;;;7.30;99.90;;;;;;5030507;28;20084;-86
2022/01/09 11:48:09;;;;;;;16.98;1.13;;;6.40;99.90;;;;;;5091658;27;20496;-84
2022/01/09 11:50:41;;;;;;;9.02;1.35;;;6.50;99.90;;;;;;5111242;27;20043;-84
2022/01/09 11:53:07;;;;;;;6.57;1.47;;;6.50;99.90;;;;;;5094961;27;20031;-84
2022/01/09 11:55:44;;;;;;;13.23;1.70;;;8.20;99.90;;;;;;5077245;27;20273;-85
2022/01/09 11:58:11;;;;;;;9.82;1.02;;;6.50;99.90;;;;;;5078162;27;20043;-84
2022/01/09 12:00:40;;;;;;;13.05;1.13;;;6.50;99.90;;;;;;5076707;27;20050;-84
2022/01/09 12:03:30;;;;;;;9.05;1.30;;;6.60;99.90;;;;;;5076599;27;20047;-85
2022/01/09 12:06:10;;;;;;;9.70;0.90;;;6.60;99.90;;;;;;5093278;27;20522;-84
2022/01/09 12:08:57;;;;;;;12.60;1.20;;;6.60;99.90;;;;;;5110563;27;20091;-83
2022/01/09 12:12:01;;;;;;;9.43;1.25;;;6.80;99.90;;;;;;5129325;27;20379;-83
2022/01/09 12:14:45;;;;;;;14.43;1.30;;;6.90;99.90;;;;;;5109997;27;20047;-84
2022/01/09 12:17:25;;;;;;;8.60;1.17;;;7.00;99.90;;;;;;5093421;27;20419;-83
2022/01/09 12:20:14;;;;;;;5.30;0.60;;;7.00;99.90;;;;;;5093995;27;20043;-84
2022/01/09 12:22:40;;;;;;;8.65;1.10;;;7.10;99.90;;;;;;5110972;27;20047;-82
2022/01/09 12:25:07;;;;;;;9.43;1.23;;;7.20;99.90;;;;;;5093786;27;20043;-83
2022/01/09 12:27:43;;;;;;;11.70;1.25;;;7.20;99.90;;;;;;5094473;27;20057;-83
2022/01/09 12:30:35;;;;;;;6.78;1.10;;;7.30;99.90;;;;;;5092848;27;20047;-85
2022/01/09 12:33:10;;;;;;;8.93;1.02;;;7.30;99.90;;;;;;5093710;27;20586;-80
2022/01/09 12:35:38;;;;;;;5.20;0.90;;;7.30;99.90;;;;;;5128688;27;20394;-83
2022/01/09 12:38:05;;;;;;;10.73;1.67;;;7.30;99.90;;;;;;5110318;27;20085;-82
2022/01/09 12:40:36;;;;;;;10.85;1.13;;;8.10;99.90;;;;;;5110501;27;20043;-82
2022/01/09 12:43:03;;;;;;;11.52;1.00;;;7.40;99.90;;;;;;5110315;27;20051;-80
2022/01/09 12:45:28;;;;;;;6.55;1.40;;;7.40;99.90;;;;;;5093588;27;20050;-82
2022/01/09 12:47:56;;;;;;;8.98;0.73;;;7.40;99.90;;;;;;5109789;27;20043;-82
2022/01/09 12:50:39;;;;;;;8.65;1.05;;;7.40;99.90;;;;;;5110139;27;20189;-82
2022/01/09 12:53:15;;;;;;;13.75;1.60;;;7.40;99.90;;;;;;5110277;27;20058;-83
2022/01/09 12:56:04;;;;;;;5.05;1.02;;;7.50;99.90;;;;;;5109584;27;20078;-83
2022/01/09 12:58:38;;;;;;;12.48;1.23;;;7.60;99.90;;;;;;5128569;27;20495;-82
2022/01/09 13:01:16;;;;;;;10.45;0.98;;;8.60;99.90;;;;;;5092207;27;20051;-82
2022/01/09 13:03:43;;;;;;;4.68;0.77;;;7.70;99.90;;;;;;5110127;27;20078;-82